sensor_id;sensor_type;location;lat;lon;timestamp;temperature;humidity
19538;DHT22;9914;51.008;4.300;2022-11-20T00:00:24;6.40;99.90
19538;DHT22;9914;51.008;4.300;2022-11-20T00:02:50;6.40;99.90
19538;DHT22;9914;51.008;4.300;2022-11-20T00:05:16;6.30;99.90
19538;DHT22;9914;51.008;4.300;2022-11-20T00:07:42;6.30;99.90
19538;DHT22;9914;51.008;4.300;2022-11-20T00:10:08;6.30;99.90
19538;DHT22;9914;51.008;4.300;2022-11-20T00:12:33;6.20;99.90
19538;DHT22;9914;51.008;4.300;2022-11-20T00:14:59;5.90;99.90
19538;DHT22;9914;51.008;4.300;2022-11-20T00:17:25;6.00;99.90
19538;DHT22;9914;51.008;4.300;2022-11-20T00:19:50;6.00;99.90
19538;DHT22;9914;51.008;4.300;2022-11-20T00:22:16;6.10;99.90
19538;DHT22;9914;51.008;4.300;2022-11-20T00:24:43;6.20;99.90
19538;DHT22;9914;51.008;4.300;2022-11-20T00:27:09;6.20;99.90
19538;DHT22;9914;51.008;4.300;2022-11-20T00:29:35;6.40;99.90
19538;DHT22;9914;51.008;4.300;2022-11-20T00:32:03;6.40;99.90
19538;DHT22;9914;51.008;4.300;2022-11-20T00:34:28;6.40;99.90
19538;DHT22;9914;51.008;4.300;2022-11-20T00:36:55;6.40;99.90
19538;DHT22;9914;51.008;4.300;2022-11-20T00:39:21;6.40;99.90
19538;DHT22;9914;51.008;4.300;2022-11-20T00:41:46;6.50;99.90
19538;DHT22;9914;51.008;4.300;2022-11-20T00:44:12;6.40;99.90
19538;DHT22;9914;51.008;4.300;2022-11-20T00:46:37;6.20;99.90
19538;DHT22;9914;51.008;4.300;2022-11-20T00:49:03;6.40;99.90
19538;DHT22;9914;51.008;4.300;2022-11-20T00:51:29;6.50;99.90
19538;DHT22;9914;51.008;4.300;2022-11-20T00:53:57;6.50;99.90
19538;DHT22;9914;51.008;4.300;2022-11-20T00:56:23;6.40;99.90
19538;DHT22;9914;51.008;4.300;2022-11-20T00:58:49;6.40;99.90
19538;DHT22;9914;51.008;4.300;2022-11-20T01:01:20;6.30;99.90
19538;DHT22;9914;51.008;4.300;2022-11-20T01:03:48;6.30;99.90
19538;DHT22;9914;51.008;4.300;2022-11-20T01:06:20;6.00;99.90
19538;DHT22;9914;51.008;4.300;2022-11-20T01:08:48;5.90;99.90
19538;DHT22;9914;51.008;4.300;2022-11-20T01:11:19;5.80;99.90
19538;DHT22;9914;51.008;4.300;2022-11-20T01:13:46;6.00;99.90
19538;DHT22;9914;51.008;4.300;2022-11-20T01:16:19;6.10;99.90
19538;DHT22;9914;51.008;4.300;2022-11-20T01:18:48;6.10;99.90
19538;DHT22;9914;51.008;4.300;2022-11-20T01:21:26;6.10;99.90
19538;DHT22;9914;51.008;4.300;2022-11-20T01:23:52;6.00;99.90
19538;DHT22;9914;51.008;4.300;2022-11-20T01:26:24;6.20;99.90
19538;DHT22;9914;51.008;4.300;2022-11-20T01:28:50;6.10;99.90
19538;DHT22;9914;51.008;4.300;2022-11-20T01:31:21;6.10;99.90
19538;DHT22;9914;51.008;4.300;2022-11-20T01:33:49;6.10;99.90
19538;DHT22;9914;51.008;4.300;2022-11-20T01:36:17;6.20;99.90
19538;DHT22;9914;51.008;4.300;2022-11-20T01:38:43;6.20;99.90
19538;DHT22;9914;51.008;4.300;2022-11-20T01:41:10;6.20;99.90
19538;DHT22;9914;51.008;4.300;2022-11-20T01:43:37;6.30;99.90
19538;DHT22;9914;51.008;4.300;2022-11-20T01:46:08;6.20;99.90
19538;DHT22;9914;51.008;4.300;2022-11-20T01:51:21;6.20;99.90
19538;DHT22;9914;51.008;4.300;2022-11-20T01:53:48;6.20;99.90
19538;DHT22;9914;51.008;4.300;2022-11-20T01:56:15;6.30;99.90
19538;DHT22;9914;51.008;4.300;2022-11-20T01:58:49;6.40;99.90
19538;DHT22;9914;51.008;4.300;2022-11-20T02:01:17;6.30;99.90
19538;DHT22;9914;51.008;4.300;2022-11-20T02:03:43;6.40;99.90
19538;DHT22;9914;51.008;4.300;2022-11-20T02:09:14;6.20;99.90
19538;DHT22;9914;51.008;4.300;2022-11-20T02:11:40;6.30;99.90
19538;DHT22;9914;51.008;4.300;2022-11-20T02:14:06;6.30;99.90
19538;DHT22;9914;51.008;4.300;2022-11-20T02:16:39;6.30;99.90
19538;DHT22;9914;51.008;4.300;2022-11-20T02:19:09;6.40;99.90
19538;DHT22;9914;51.008;4.300;2022-11-20T02:22:16;6.30;99.90
19538;DHT22;9914;51.008;4.300;2022-11-20T02:24:46;6.50;99.90
19538;DHT22;9914;51.008;4.300;2022-11-20T02:27:15;6.50;99.90
19538;DHT22;9914;51.008;4.300;2022-11-20T02:29:45;6.40;99.90
19538;DHT22;9914;51.008;4.300;2022-11-20T02:34:54;6.40;99.90
19538;DHT22;9914;51.008;4.300;2022-11-20T02:37:20;6.30;99.90
19538;DHT22;9914;51.008;4.300;2022-11-20T02:39:48;6.20;99.90
19538;DHT22;9914;51.008;4.300;2022-11-20T02:42:14;6.20;99.90
19538;DHT22;9914;51.008;4.300;2022-11-20T02:44:40;6.20;99.90
19538;DHT22;9914;51.008;4.300;2022-11-20T02:47:05;6.20;99.90
19538;DHT22;9914;51.008;4.300;2022-11-20T02:49:31;6.10;99.90
19538;DHT22;9914;51.008;4.300;2022-11-20T02:51:57;6.10;99.90
19538;DHT22;9914;51.008;4.300;2022-11-20T02:54:23;6.10;99.90
19538;DHT22;9914;51.008;4.300;2022-11-20T02:56:49;6.10;99.90
19538;DHT22;9914;51.008;4.300;2022-11-20T02:59:15;6.10;99.90
19538;DHT22;9914;51.008;4.300;2022-11-20T03:01:41;6.20;99.90
19538;DHT22;9914;51.008;4.300;2022-11-20T03:04:10;6.10;99.90
19538;DHT22;9914;51.008;4.300;2022-11-20T03:06:36;6.20;99.90
19538;DHT22;9914;51.008;4.300;2022-11-20T03:09:02;6.20;99.90
19538;DHT22;9914;51.008;4.300;2022-11-20T03:11:28;6.10;99.90
19538;DHT22;9914;51.008;4.300;2022-11-20T03:13:53;6.20;99.90
19538;DHT22;9914;51.008;4.300;2022-11-20T03:16:21;6.10;99.90
19538;DHT22;9914;51.008;4.300;2022-11-20T03:18:48;6.20;99.90
19538;DHT22;9914;51.008;4.300;2022-11-20T03:21:15;6.40;99.90
19538;DHT22;9914;51.008;4.300;2022-11-20T03:23:41;6.40;99.90
19538;DHT22;9914;51.008;4.300;2022-11-20T03:26:08;6.40;99.90
19538;DHT22;9914;51.008;4.300;2022-11-20T03:28:34;6.30;99.90
19538;DHT22;9914;51.008;4.300;2022-11-20T03:31:06;6.10;99.90
19538;DHT22;9914;51.008;4.300;2022-11-20T03:33:31;6.10;99.90
19538;DHT22;9914;51.008;4.300;2022-11-20T03:36:02;6.00;99.90
19538;DHT22;9914;51.008;4.300;2022-11-20T03:38:30;6.10;99.90
19538;DHT22;9914;51.008;4.300;2022-11-20T03:41:06;5.90;99.90
19538;DHT22;9914;51.008;4.300;2022-11-20T03:43:33;5.80;99.90
19538;DHT22;9914;51.008;4.300;2022-11-20T03:45:59;5.80;99.90
19538;DHT22;9914;51.008;4.300;2022-11-20T03:48:25;5.90;99.90
19538;DHT22;9914;51.008;4.300;2022-11-20T03:50:52;6.00;99.90
19538;DHT22;9914;51.008;4.300;2022-11-20T03:53:18;6.00;99.90
19538;DHT22;9914;51.008;4.300;2022-11-20T03:55:43;5.90;99.90
19538;DHT22;9914;51.008;4.300;2022-11-20T03:58:10;6.00;99.90
19538;DHT22;9914;51.008;4.300;2022-11-20T04:00:35;5.90;99.90
19538;DHT22;9914;51.008;4.300;2022-11-20T04:03:02;6.10;99.90
19538;DHT22;9914;51.008;4.300;2022-11-20T04:05:28;6.10;99.90
19538;DHT22;9914;51.008;4.300;2022-11-20T04:07:54;6.10;99.90
19538;DHT22;9914;51.008;4.300;2022-11-20T04:10:19;6.00;99.90
19538;DHT22;9914;51.008;4.300;2022-11-20T04:12:45;6.00;99.90
19538;DHT22;9914;51.008;4.300;2022-11-20T04:15:11;6.00;99.90
19538;DHT22;9914;51.008;4.300;2022-11-20T04:17:36;6.10;99.90
19538;DHT22;9914;51.008;4.300;2022-11-20T04:20:02;6.00;99.90
19538;DHT22;9914;51.008;4.300;2022-11-20T04:22:28;6.00;99.90
19538;DHT22;9914;51.008;4.300;2022-11-20T04:24:54;5.90;99.90
19538;DHT22;9914;51.008;4.300;2022-11-20T04:27:20;5.80;99.90
19538;DHT22;9914;51.008;4.300;2022-11-20T04:29:46;5.70;99.90
19538;DHT22;9914;51.008;4.300;2022-11-20T04:32:12;5.60;99.90
19538;DHT22;9914;51.008;4.300;2022-11-20T04:34:37;5.70;99.90
19538;DHT22;9914;51.008;4.300;2022-11-20T04:37:03;5.80;99.90
19538;DHT22;9914;51.008;4.300;2022-11-20T04:39:29;5.80;99.90
19538;DHT22;9914;51.008;4.300;2022-11-20T04:41:54;5.90;99.90
19538;DHT22;9914;51.008;4.300;2022-11-20T04:44:38;6.00;99.90
19538;DHT22;9914;51.008;4.300;2022-11-20T04:47:04;6.20;99.90
19538;DHT22;9914;51.008;4.300;2022-11-20T04:49:30;6.20;99.90
19538;DHT22;9914;51.008;4.300;2022-11-20T04:51:57;6.00;99.90
19538;DHT22;9914;51.008;4.300;2022-11-20T04:54:22;6.10;99.90
19538;DHT22;9914;51.008;4.300;2022-11-20T04:56:50;6.00;99.90
19538;DHT22;9914;51.008;4.300;2022-11-20T04:59:16;6.00;99.90
19538;DHT22;9914;51.008;4.300;2022-11-20T05:01:41;6.10;99.90
19538;DHT22;9914;51.008;4.300;2022-11-20T05:04:07;6.10;99.90
19538;DHT22;9914;51.008;4.300;2022-11-20T05:06:35;6.30;99.90
19538;DHT22;9914;51.008;4.300;2022-11-20T05:09:02;6.20;99.90
19538;DHT22;9914;51.008;4.300;2022-11-20T05:11:27;6.20;99.90
19538;DHT22;9914;51.008;4.300;2022-11-20T05:13:58;6.10;99.90
19538;DHT22;9914;51.008;4.300;2022-11-20T05:16:25;6.20;99.90
19538;DHT22;9914;51.008;4.300;2022-11-20T05:18:53;6.20;99.90
19538;DHT22;9914;51.008;4.300;2022-11-20T05:21:19;6.50;99.90
19538;DHT22;9914;51.008;4.300;2022-11-20T05:23:45;6.60;99.90
19538;DHT22;9914;51.008;4.300;2022-11-20T05:26:19;6.50;99.90
19538;DHT22;9914;51.008;4.300;2022-11-20T05:28:47;6.50;99.90
19538;DHT22;9914;51.008;4.300;2022-11-20T05:31:15;6.30;99.90
19538;DHT22;9914;51.008;4.300;2022-11-20T05:33:42;6.30;99.90
19538;DHT22;9914;51.008;4.300;2022-11-20T05:36:09;6.20;99.90
19538;DHT22;9914;51.008;4.300;2022-11-20T05:38:34;6.20;99.90
19538;DHT22;9914;51.008;4.300;2022-11-20T05:41:14;6.40;99.90
19538;DHT22;9914;51.008;4.300;2022-11-20T05:43:41;6.60;99.90
19538;DHT22;9914;51.008;4.300;2022-11-20T05:46:08;6.50;99.90
19538;DHT22;9914;51.008;4.300;2022-11-20T05:48:35;6.20;99.90
19538;DHT22;9914;51.008;4.300;2022-11-20T05:51:02;6.20;99.90
19538;DHT22;9914;51.008;4.300;2022-11-20T05:53:29;6.30;99.90
19538;DHT22;9914;51.008;4.300;2022-11-20T05:56:05;6.40;99.90
19538;DHT22;9914;51.008;4.300;2022-11-20T05:58:32;6.40;99.90
19538;DHT22;9914;51.008;4.300;2022-11-20T06:01:14;6.40;99.90
19538;DHT22;9914;51.008;4.300;2022-11-20T06:03:41;6.30;99.90
19538;DHT22;9914;51.008;4.300;2022-11-20T06:06:13;6.40;99.90
19538;DHT22;9914;51.008;4.300;2022-11-20T06:08:40;6.20;99.90
19538;DHT22;9914;51.008;4.300;2022-11-20T06:11:08;6.20;99.90
19538;DHT22;9914;51.008;4.300;2022-11-20T06:13:34;6.10;99.90
19538;DHT22;9914;51.008;4.300;2022-11-20T06:16:00;6.00;99.90
19538;DHT22;9914;51.008;4.300;2022-11-20T06:18:27;6.20;99.90
19538;DHT22;9914;51.008;4.300;2022-11-20T06:21:09;6.30;99.90
19538;DHT22;9914;51.008;4.300;2022-11-20T06:23:36;6.30;99.90
19538;DHT22;9914;51.008;4.300;2022-11-20T06:26:04;6.40;99.90
19538;DHT22;9914;51.008;4.300;2022-11-20T06:28:30;6.40;99.90
19538;DHT22;9914;51.008;4.300;2022-11-20T06:30:55;6.40;99.90
19538;DHT22;9914;51.008;4.300;2022-11-20T06:33:21;6.40;99.90
19538;DHT22;9914;51.008;4.300;2022-11-20T06:35:47;6.40;99.90
19538;DHT22;9914;51.008;4.300;2022-11-20T06:38:13;6.50;99.90
19538;DHT22;9914;51.008;4.300;2022-11-20T06:40:42;6.60;99.90
19538;DHT22;9914;51.008;4.300;2022-11-20T06:43:09;6.70;99.90
19538;DHT22;9914;51.008;4.300;2022-11-20T06:45:35;6.50;99.90
19538;DHT22;9914;51.008;4.300;2022-11-20T06:48:01;6.50;99.90
19538;DHT22;9914;51.008;4.300;2022-11-20T06:50:27;6.50;99.90
19538;DHT22;9914;51.008;4.300;2022-11-20T06:52:52;6.70;99.90
19538;DHT22;9914;51.008;4.300;2022-11-20T06:55:18;6.80;99.90
19538;DHT22;9914;51.008;4.300;2022-11-20T06:57:43;6.90;99.90
19538;DHT22;9914;51.008;4.300;2022-11-20T07:00:10;6.90;99.90
19538;DHT22;9914;51.008;4.300;2022-11-20T07:02:35;6.80;99.90
19538;DHT22;9914;51.008;4.300;2022-11-20T07:05:01;6.90;99.90
19538;DHT22;9914;51.008;4.300;2022-11-20T07:07:26;7.00;99.90
19538;DHT22;9914;51.008;4.300;2022-11-20T07:09:52;6.90;99.90
19538;DHT22;9914;51.008;4.300;2022-11-20T07:12:18;7.00;99.90
19538;DHT22;9914;51.008;4.300;2022-11-20T07:14:43;7.10;99.90
19538;DHT22;9914;51.008;4.300;2022-11-20T07:17:09;7.00;99.90
19538;DHT22;9914;51.008;4.300;2022-11-20T07:19:34;7.10;99.90
19538;DHT22;9914;51.008;4.300;2022-11-20T07:22:00;7.10;99.90
19538;DHT22;9914;51.008;4.300;2022-11-20T07:24:25;7.10;99.90
19538;DHT22;9914;51.008;4.300;2022-11-20T07:26:54;7.10;99.90
19538;DHT22;9914;51.008;4.300;2022-11-20T07:29:20;7.10;99.90
19538;DHT22;9914;51.008;4.300;2022-11-20T07:31:45;7.20;99.90
19538;DHT22;9914;51.008;4.300;2022-11-20T07:34:11;7.20;99.90
19538;DHT22;9914;51.008;4.300;2022-11-20T07:36:37;7.10;99.90
19538;DHT22;9914;51.008;4.300;2022-11-20T07:39:02;7.30;99.90
19538;DHT22;9914;51.008;4.300;2022-11-20T07:41:28;7.30;99.90
19538;DHT22;9914;51.008;4.300;2022-11-20T07:43:54;7.20;99.90
19538;DHT22;9914;51.008;4.300;2022-11-20T07:46:20;7.30;99.90
19538;DHT22;9914;51.008;4.300;2022-11-20T07:48:45;7.30;99.90
19538;DHT22;9914;51.008;4.300;2022-11-20T07:51:11;7.50;99.90
19538;DHT22;9914;51.008;4.300;2022-11-20T07:53:36;7.60;99.90
19538;DHT22;9914;51.008;4.300;2022-11-20T07:56:02;7.70;99.90
19538;DHT22;9914;51.008;4.300;2022-11-20T07:58:29;7.60;99.90
19538;DHT22;9914;51.008;4.300;2022-11-20T08:00:55;7.70;99.90
19538;DHT22;9914;51.008;4.300;2022-11-20T08:03:21;7.60;99.90
19538;DHT22;9914;51.008;4.300;2022-11-20T08:05:47;7.50;99.90
19538;DHT22;9914;51.008;4.300;2022-11-20T08:08:12;7.40;99.90
19538;DHT22;9914;51.008;4.300;2022-11-20T08:10:38;7.30;99.90
19538;DHT22;9914;51.008;4.300;2022-11-20T08:13:03;7.30;99.90
19538;DHT22;9914;51.008;4.300;2022-11-20T08:15:49;7.40;99.90
19538;DHT22;9914;51.008;4.300;2022-11-20T08:18:16;7.30;99.90
19538;DHT22;9914;51.008;4.300;2022-11-20T08:20:43;7.50;99.90
19538;DHT22;9914;51.008;4.300;2022-11-20T08:23:08;7.60;99.90
19538;DHT22;9914;51.008;4.300;2022-11-20T08:25:35;7.90;99.90
19538;DHT22;9914;51.008;4.300;2022-11-20T08:28:06;7.90;99.90
19538;DHT22;9914;51.008;4.300;2022-11-20T08:30:33;7.90;99.90
19538;DHT22;9914;51.008;4.300;2022-11-20T08:33:04;7.90;99.90
19538;DHT22;9914;51.008;4.300;2022-11-20T08:35:33;7.90;99.90
19538;DHT22;9914;51.008;4.300;2022-11-20T08:38:00;7.90;99.90
19538;DHT22;9914;51.008;4.300;2022-11-20T08:40:26;7.90;99.90
19538;DHT22;9914;51.008;4.300;2022-11-20T08:42:51;7.90;99.90
19538;DHT22;9914;51.008;4.300;2022-11-20T08:45:18;7.80;99.90
19538;DHT22;9914;51.008;4.300;2022-11-20T08:47:44;7.80;99.90
19538;DHT22;9914;51.008;4.300;2022-11-20T08:50:12;7.80;99.90
19538;DHT22;9914;51.008;4.300;2022-11-20T08:52:38;7.70;99.90
19538;DHT22;9914;51.008;4.300;2022-11-20T08:55:05;7.70;99.90
19538;DHT22;9914;51.008;4.300;2022-11-20T08:57:32;7.90;99.90
19538;DHT22;9914;51.008;4.300;2022-11-20T08:59:58;8.10;99.90
19538;DHT22;9914;51.008;4.300;2022-11-20T09:02:24;8.10;99.90
19538;DHT22;9914;51.008;4.300;2022-11-20T09:04:50;7.90;99.90
19538;DHT22;9914;51.008;4.300;2022-11-20T09:07:16;8.00;99.90
19538;DHT22;9914;51.008;4.300;2022-11-20T09:09:42;8.10;99.90
19538;DHT22;9914;51.008;4.300;2022-11-20T09:12:07;8.30;99.90
19538;DHT22;9914;51.008;4.300;2022-11-20T09:14:33;8.20;99.90
19538;DHT22;9914;51.008;4.300;2022-11-20T09:16:59;8.10;99.90
19538;DHT22;9914;51.008;4.300;2022-11-20T09:19:25;8.30;99.90
19538;DHT22;9914;51.008;4.300;2022-11-20T09:21:51;8.10;99.90
19538;DHT22;9914;51.008;4.300;2022-11-20T09:24:17;8.00;99.90
19538;DHT22;9914;51.008;4.300;2022-11-20T09:26:43;8.30;99.90
19538;DHT22;9914;51.008;4.300;2022-11-20T09:29:08;8.50;99.90
19538;DHT22;9914;51.008;4.300;2022-11-20T09:31:34;8.60;99.90
19538;DHT22;9914;51.008;4.300;2022-11-20T09:34:00;8.60;99.90
19538;DHT22;9914;51.008;4.300;2022-11-20T09:36:25;8.80;99.90
19538;DHT22;9914;51.008;4.300;2022-11-20T09:38:52;9.00;99.90
19538;DHT22;9914;51.008;4.300;2022-11-20T09:44:16;9.10;99.90
19538;DHT22;9914;51.008;4.300;2022-11-20T09:46:53;9.00;99.90
19538;DHT22;9914;51.008;4.300;2022-11-20T09:52:01;9.10;99.90
19538;DHT22;9914;51.008;4.300;2022-11-20T09:54:34;9.20;99.90
19538;DHT22;9914;51.008;4.300;2022-11-20T09:57:03;9.30;99.90
19538;DHT22;9914;51.008;4.300;2022-11-20T09:59:38;9.40;99.90
19538;DHT22;9914;51.008;4.300;2022-11-20T10:10:44;9.10;99.90
19538;DHT22;9914;51.008;4.300;2022-11-20T10:13:20;9.20;99.90
19538;DHT22;9914;51.008;4.300;2022-11-20T10:27:30;9.80;99.90
19538;DHT22;9914;51.008;4.300;2022-11-20T10:32:33;9.80;99.90
19538;DHT22;9914;51.008;4.300;2022-11-20T10:35:24;10.00;99.90
19538;DHT22;9914;51.008;4.300;2022-11-20T10:38:05;9.80;99.90
19538;DHT22;9914;51.008;4.300;2022-11-20T10:44:02;10.00;99.90
19538;DHT22;9914;51.008;4.300;2022-11-20T10:46:37;10.10;99.90
19538;DHT22;9914;51.008;4.300;2022-11-20T10:49:14;10.50;99.90
19538;DHT22;9914;51.008;4.300;2022-11-20T10:56:51;11.40;99.90
19538;DHT22;9914;51.008;4.300;2022-11-20T11:02:17;11.60;99.90
19538;DHT22;9914;51.008;4.300;2022-11-20T11:04:48;11.50;99.90
19538;DHT22;9914;51.008;4.300;2022-11-20T11:07:57;11.50;99.90
19538;DHT22;9914;51.008;4.300;2022-11-20T11:13:21;11.40;99.90
19538;DHT22;9914;51.008;4.300;2022-11-20T11:15:47;11.30;99.90
19538;DHT22;9914;51.008;4.300;2022-11-20T11:18:29;11.30;99.90
19538;DHT22;9914;51.008;4.300;2022-11-20T11:20:57;11.30;99.90
19538;DHT22;9914;51.008;4.300;2022-11-20T11:23:32;11.00;99.90
19538;DHT22;9914;51.008;4.300;2022-11-20T11:26:00;11.10;99.90
19538;DHT22;9914;51.008;4.300;2022-11-20T11:28:27;11.00;99.90
19538;DHT22;9914;51.008;4.300;2022-11-20T11:30:54;11.10;99.90
19538;DHT22;9914;51.008;4.300;2022-11-20T11:33:23;11.10;99.90
19538;DHT22;9914;51.008;4.300;2022-11-20T11:35:54;11.00;99.90
19538;DHT22;9914;51.008;4.300;2022-11-20T11:41:05;10.70;99.90
19538;DHT22;9914;51.008;4.300;2022-11-20T11:43:34;10.70;99.90
19538;DHT22;9914;51.008;4.300;2022-11-20T11:46:35;10.90;99.90
19538;DHT22;9914;51.008;4.300;2022-11-20T11:54:55;11.10;99.90
19538;DHT22;9914;51.008;4.300;2022-11-20T11:57:46;11.00;99.90
19538;DHT22;9914;51.008;4.300;2022-11-20T12:00:20;10.90;99.90
19538;DHT22;9914;51.008;4.300;2022-11-20T12:10:55;10.50;99.90
19538;DHT22;9914;51.008;4.300;2022-11-20T12:16:00;10.50;99.90
19538;DHT22;9914;51.008;4.300;2022-11-20T12:18:27;10.40;99.90
19538;DHT22;9914;51.008;4.300;2022-11-20T12:21:06;10.30;99.90
19538;DHT22;9914;51.008;4.300;2022-11-20T12:26:10;10.10;99.90
19538;DHT22;9914;51.008;4.300;2022-11-20T12:28:51;10.10;99.90
19538;DHT22;9914;51.008;4.300;2022-11-20T12:37:16;10.10;99.90
19538;DHT22;9914;51.008;4.300;2022-11-20T12:39:49;10.10;99.90
19538;DHT22;9914;51.008;4.300;2022-11-20T12:48:13;10.10;99.90
19538;DHT22;9914;51.008;4.300;2022-11-20T13:05:21;10.40;99.90
19538;DHT22;9914;51.008;4.300;2022-11-20T13:07:52;10.40;99.90
19538;DHT22;9914;51.008;4.300;2022-11-20T13:15:56;10.70;99.90
19538;DHT22;9914;51.008;4.300;2022-11-20T13:18:25;10.80;99.90
19538;DHT22;9914;51.008;4.300;2022-11-20T13:20:50;10.70;99.90
19538;DHT22;9914;51.008;4.300;2022-11-20T13:23:27;10.70;99.90
19538;DHT22;9914;51.008;4.300;2022-11-20T13:26:15;10.70;99.90
19538;DHT22;9914;51.008;4.300;2022-11-20T13:28:42;10.70;99.90
19538;DHT22;9914;51.008;4.300;2022-11-20T13:31:31;10.50;99.90
19538;DHT22;9914;51.008;4.300;2022-11-20T13:33:57;10.40;99.90
19538;DHT22;9914;51.008;4.300;2022-11-20T13:36:27;10.40;99.90
19538;DHT22;9914;51.008;4.300;2022-11-20T13:38:55;10.30;99.90
19538;DHT22;9914;51.008;4.300;2022-11-20T13:41:37;10.30;99.90
19538;DHT22;9914;51.008;4.300;2022-11-20T13:46:58;10.00;99.90
19538;DHT22;9914;51.008;4.300;2022-11-20T13:49:39;9.80;99.90
19538;DHT22;9914;51.008;4.300;2022-11-20T13:55:40;9.70;99.90
19538;DHT22;9914;51.008;4.300;2022-11-20T14:01:09;9.80;99.90
19538;DHT22;9914;51.008;4.300;2022-11-20T14:03:36;9.80;99.90
19538;DHT22;9914;51.008;4.300;2022-11-20T14:06:05;9.70;99.90
19538;DHT22;9914;51.008;4.300;2022-11-20T14:08:33;9.50;99.90
19538;DHT22;9914;51.008;4.300;2022-11-20T14:11:19;9.60;99.90
19538;DHT22;9914;51.008;4.300;2022-11-20T14:14:15;9.50;99.90
19538;DHT22;9914;51.008;4.300;2022-11-20T14:16:42;9.40;99.90
19538;DHT22;9914;51.008;4.300;2022-11-20T14:22:05;9.50;99.90
19538;DHT22;9914;51.008;4.300;2022-11-20T14:24:32;9.30;99.90
19538;DHT22;9914;51.008;4.300;2022-11-20T14:26:57;9.40;99.90
19538;DHT22;9914;51.008;4.300;2022-11-20T14:29:34;9.40;99.90
19538;DHT22;9914;51.008;4.300;2022-11-20T14:32:01;9.30;99.90
19538;DHT22;9914;51.008;4.300;2022-11-20T14:34:32;9.30;99.90
19538;DHT22;9914;51.008;4.300;2022-11-20T14:37:01;9.30;99.90
19538;DHT22;9914;51.008;4.300;2022-11-20T14:39:36;9.40;99.90
19538;DHT22;9914;51.008;4.300;2022-11-20T14:42:10;9.50;99.90
19538;DHT22;9914;51.008;4.300;2022-11-20T14:44:40;9.60;99.90
19538;DHT22;9914;51.008;4.300;2022-11-20T14:47:08;9.50;99.90
19538;DHT22;9914;51.008;4.300;2022-11-20T14:49:37;9.40;99.90
19538;DHT22;9914;51.008;4.300;2022-11-20T14:52:12;9.40;99.90
19538;DHT22;9914;51.008;4.300;2022-11-20T14:54:45;9.40;99.90
19538;DHT22;9914;51.008;4.300;2022-11-20T15:02:44;9.70;99.90
19538;DHT22;9914;51.008;4.300;2022-11-20T15:05:11;9.80;99.90
19538;DHT22;9914;51.008;4.300;2022-11-20T15:07:40;9.80;99.90
19538;DHT22;9914;51.008;4.300;2022-11-20T15:10:25;9.90;99.90
19538;DHT22;9914;51.008;4.300;2022-11-20T15:12:53;9.80;99.90
19538;DHT22;9914;51.008;4.300;2022-11-20T15:15:43;9.80;99.90
19538;DHT22;9914;51.008;4.300;2022-11-20T15:18:20;9.90;99.90
19538;DHT22;9914;51.008;4.300;2022-11-20T15:20:47;9.90;99.90
19538;DHT22;9914;51.008;4.300;2022-11-20T15:23:14;10.00;99.90
19538;DHT22;9914;51.008;4.300;2022-11-20T15:25:41;10.00;99.90
19538;DHT22;9914;51.008;4.300;2022-11-20T15:30:39;10.00;99.90
19538;DHT22;9914;51.008;4.300;2022-11-20T15:33:08;9.90;99.90
19538;DHT22;9914;51.008;4.300;2022-11-20T15:35:33;10.00;99.90
19538;DHT22;9914;51.008;4.300;2022-11-20T15:37:59;10.10;99.90
19538;DHT22;9914;51.008;4.300;2022-11-20T15:40:25;10.10;99.90
19538;DHT22;9914;51.008;4.300;2022-11-20T15:42:51;10.20;99.90
19538;DHT22;9914;51.008;4.300;2022-11-20T15:45:30;10.20;99.90
19538;DHT22;9914;51.008;4.300;2022-11-20T15:47:58;10.20;99.90
19538;DHT22;9914;51.008;4.300;2022-11-20T15:50:29;10.10;99.90
19538;DHT22;9914;51.008;4.300;2022-11-20T15:52:57;10.10;99.90
19538;DHT22;9914;51.008;4.300;2022-11-20T15:55:22;10.10;99.90
19538;DHT22;9914;51.008;4.300;2022-11-20T15:57:48;10.10;99.90
19538;DHT22;9914;51.008;4.300;2022-11-20T16:00:14;10.00;99.90
19538;DHT22;9914;51.008;4.300;2022-11-20T16:02:41;10.00;99.90
19538;DHT22;9914;51.008;4.300;2022-11-20T16:05:11;10.00;99.90
19538;DHT22;9914;51.008;4.300;2022-11-20T16:07:37;10.00;99.90
19538;DHT22;9914;51.008;4.300;2022-11-20T16:10:03;9.90;99.90
19538;DHT22;9914;51.008;4.300;2022-11-20T16:12:30;9.90;99.90
19538;DHT22;9914;51.008;4.300;2022-11-20T16:15:14;9.90;99.90
19538;DHT22;9914;51.008;4.300;2022-11-20T16:17:59;9.80;99.90
19538;DHT22;9914;51.008;4.300;2022-11-20T16:20:24;9.80;99.90
19538;DHT22;9914;51.008;4.300;2022-11-20T16:22:50;9.80;99.90
19538;DHT22;9914;51.008;4.300;2022-11-20T16:25:16;9.80;99.90
19538;DHT22;9914;51.008;4.300;2022-11-20T16:27:42;9.70;99.90
19538;DHT22;9914;51.008;4.300;2022-11-20T16:30:08;9.70;99.90
19538;DHT22;9914;51.008;4.300;2022-11-20T16:32:34;9.80;99.90
19538;DHT22;9914;51.008;4.300;2022-11-20T16:34:59;9.80;99.90
19538;DHT22;9914;51.008;4.300;2022-11-20T16:37:26;9.80;99.90
19538;DHT22;9914;51.008;4.300;2022-11-20T16:39:53;9.90;99.90
19538;DHT22;9914;51.008;4.300;2022-11-20T16:42:18;9.90;99.90
19538;DHT22;9914;51.008;4.300;2022-11-20T16:44:45;10.00;99.90
19538;DHT22;9914;51.008;4.300;2022-11-20T16:47:11;10.10;99.90
19538;DHT22;9914;51.008;4.300;2022-11-20T16:49:37;10.10;99.90
19538;DHT22;9914;51.008;4.300;2022-11-20T16:52:03;10.10;99.90
19538;DHT22;9914;51.008;4.300;2022-11-20T16:54:29;10.00;99.90
19538;DHT22;9914;51.008;4.300;2022-11-20T16:56:55;9.90;99.90
19538;DHT22;9914;51.008;4.300;2022-11-20T16:59:21;9.80;99.90
19538;DHT22;9914;51.008;4.300;2022-11-20T17:01:47;9.80;99.90
19538;DHT22;9914;51.008;4.300;2022-11-20T17:04:13;9.70;99.90
19538;DHT22;9914;51.008;4.300;2022-11-20T17:06:42;9.70;99.90
19538;DHT22;9914;51.008;4.300;2022-11-20T17:09:09;9.60;99.90
19538;DHT22;9914;51.008;4.300;2022-11-20T17:11:35;9.50;99.90
19538;DHT22;9914;51.008;4.300;2022-11-20T17:14:01;9.40;99.90
19538;DHT22;9914;51.008;4.300;2022-11-20T17:16:29;9.30;99.90
19538;DHT22;9914;51.008;4.300;2022-11-20T17:18:56;9.30;99.90
19538;DHT22;9914;51.008;4.300;2022-11-20T17:21:21;9.30;99.90
19538;DHT22;9914;51.008;4.300;2022-11-20T17:23:48;9.30;99.90
19538;DHT22;9914;51.008;4.300;2022-11-20T17:26:19;9.30;99.90
19538;DHT22;9914;51.008;4.300;2022-11-20T17:28:51;9.30;99.90
19538;DHT22;9914;51.008;4.300;2022-11-20T17:31:19;9.20;99.90
19538;DHT22;9914;51.008;4.300;2022-11-20T17:33:45;9.20;99.90
19538;DHT22;9914;51.008;4.300;2022-11-20T17:36:17;9.30;99.90
19538;DHT22;9914;51.008;4.300;2022-11-20T17:38:43;9.20;99.90
19538;DHT22;9914;51.008;4.300;2022-11-20T17:41:17;9.20;99.90
19538;DHT22;9914;51.008;4.300;2022-11-20T17:43:43;9.20;99.90
19538;DHT22;9914;51.008;4.300;2022-11-20T17:46:14;9.30;99.90
19538;DHT22;9914;51.008;4.300;2022-11-20T17:48:40;9.30;99.90
19538;DHT22;9914;51.008;4.300;2022-11-20T17:51:10;9.30;99.90
19538;DHT22;9914;51.008;4.300;2022-11-20T17:53:37;9.30;99.90
19538;DHT22;9914;51.008;4.300;2022-11-20T17:56:04;9.30;99.90
19538;DHT22;9914;51.008;4.300;2022-11-20T17:58:48;9.20;99.90
19538;DHT22;9914;51.008;4.300;2022-11-20T18:01:15;9.20;99.90
19538;DHT22;9914;51.008;4.300;2022-11-20T18:03:42;9.30;99.90
19538;DHT22;9914;51.008;4.300;2022-11-20T18:06:21;9.20;99.90
19538;DHT22;9914;51.008;4.300;2022-11-20T18:08:48;9.20;99.90
19538;DHT22;9914;51.008;4.300;2022-11-20T18:13:41;9.40;99.90
19538;DHT22;9914;51.008;4.300;2022-11-20T18:16:26;9.40;99.90